sensor_id;sensor_type;location;lat;lon;timestamp;temperature;humidity
14489;DHT22;7330;50.804;4.550;2023-12-20T00:02:00;8.90;99.90
14489;DHT22;7330;50.804;4.550;2023-12-20T00:06:56;8.80;99.90
14489;DHT22;7330;50.804;4.550;2023-12-20T00:09:23;8.80;99.90
14489;DHT22;7330;50.804;4.550;2023-12-20T00:11:49;8.80;99.90
14489;DHT22;7330;50.804;4.550;2023-12-20T00:14:17;8.70;99.90
14489;DHT22;7330;50.804;4.550;2023-12-20T00:16:44;8.70;99.90
14489;DHT22;7330;50.804;4.550;2023-12-20T00:21:38;8.60;99.90
14489;DHT22;7330;50.804;4.550;2023-12-20T00:24:06;8.60;99.90
14489;DHT22;7330;50.804;4.550;2023-12-20T00:29:00;8.60;99.90
14489;DHT22;7330;50.804;4.550;2023-12-20T00:31:27;8.60;99.90
14489;DHT22;7330;50.804;4.550;2023-12-20T00:33:53;8.60;99.90
14489;DHT22;7330;50.804;4.550;2023-12-20T00:36:21;8.50;99.90
14489;DHT22;7330;50.804;4.550;2023-12-20T00:38:48;8.50;99.90
14489;DHT22;7330;50.804;4.550;2023-12-20T00:41:18;8.50;99.90
14489;DHT22;7330;50.804;4.550;2023-12-20T00:43:44;8.40;99.90
14489;DHT22;7330;50.804;4.550;2023-12-20T00:53:34;8.30;99.90
14489;DHT22;7330;50.804;4.550;2023-12-20T01:00:56;8.30;99.90
14489;DHT22;7330;50.804;4.550;2023-12-20T01:03:23;8.20;99.90
14489;DHT22;7330;50.804;4.550;2023-12-20T01:05:50;8.20;99.90
14489;DHT22;7330;50.804;4.550;2023-12-20T01:08:17;8.10;99.90
14489;DHT22;7330;50.804;4.550;2023-12-20T01:13:12;8.10;99.90
14489;DHT22;7330;50.804;4.550;2023-12-20T01:15:38;8.10;99.90
14489;DHT22;7330;50.804;4.550;2023-12-20T01:18:07;8.10;99.90
14489;DHT22;7330;50.804;4.550;2023-12-20T01:20:34;8.00;99.90
14489;DHT22;7330;50.804;4.550;2023-12-20T01:23:00;8.00;99.90
14489;DHT22;7330;50.804;4.550;2023-12-20T01:25:27;8.00;99.90
14489;DHT22;7330;50.804;4.550;2023-12-20T01:27:54;8.00;99.90
14489;DHT22;7330;50.804;4.550;2023-12-20T01:30:21;8.00;99.90
14489;DHT22;7330;50.804;4.550;2023-12-20T01:35:16;7.90;99.90
14489;DHT22;7330;50.804;4.550;2023-12-20T01:37:43;7.90;99.90
14489;DHT22;7330;50.804;4.550;2023-12-20T01:40:10;7.90;99.90
14489;DHT22;7330;50.804;4.550;2023-12-20T01:42:37;7.90;99.90
14489;DHT22;7330;50.804;4.550;2023-12-20T01:45:04;7.90;99.90
14489;DHT22;7330;50.804;4.550;2023-12-20T01:47:31;7.90;99.90
14489;DHT22;7330;50.804;4.550;2023-12-20T01:49:58;7.80;99.90
14489;DHT22;7330;50.804;4.550;2023-12-20T01:52:26;7.80;99.90
14489;DHT22;7330;50.804;4.550;2023-12-20T01:54:53;7.80;99.90
14489;DHT22;7330;50.804;4.550;2023-12-20T01:57:26;7.80;99.90
14489;DHT22;7330;50.804;4.550;2023-12-20T01:59:53;7.80;99.90
14489;DHT22;7330;50.804;4.550;2023-12-20T02:02:19;7.70;99.90
14489;DHT22;7330;50.804;4.550;2023-12-20T02:04:46;7.70;99.90
14489;DHT22;7330;50.804;4.550;2023-12-20T02:07:13;7.70;99.90
14489;DHT22;7330;50.804;4.550;2023-12-20T02:09:41;7.60;99.90
14489;DHT22;7330;50.804;4.550;2023-12-20T02:12:09;7.70;99.90
14489;DHT22;7330;50.804;4.550;2023-12-20T02:17:03;7.60;99.90
14489;DHT22;7330;50.804;4.550;2023-12-20T02:19:29;7.60;99.90
14489;DHT22;7330;50.804;4.550;2023-12-20T02:24:25;7.60;99.90
14489;DHT22;7330;50.804;4.550;2023-12-20T02:26:52;7.60;99.90
14489;DHT22;7330;50.804;4.550;2023-12-20T02:29:19;7.60;99.90
14489;DHT22;7330;50.804;4.550;2023-12-20T02:31:45;7.60;99.90
14489;DHT22;7330;50.804;4.550;2023-12-20T02:34:12;7.60;99.90
14489;DHT22;7330;50.804;4.550;2023-12-20T02:36:39;7.60;99.90
14489;DHT22;7330;50.804;4.550;2023-12-20T02:39:06;7.60;99.90
14489;DHT22;7330;50.804;4.550;2023-12-20T02:41:35;7.60;99.90
14489;DHT22;7330;50.804;4.550;2023-12-20T02:48:55;7.50;99.90
14489;DHT22;7330;50.804;4.550;2023-12-20T02:51:22;7.50;99.90
14489;DHT22;7330;50.804;4.550;2023-12-20T02:53:49;7.50;99.90
14489;DHT22;7330;50.804;4.550;2023-12-20T02:56:17;7.60;99.90
14489;DHT22;7330;50.804;4.550;2023-12-20T02:58:45;7.50;99.90
14489;DHT22;7330;50.804;4.550;2023-12-20T03:01:12;7.50;99.90
14489;DHT22;7330;50.804;4.550;2023-12-20T03:08:32;7.50;99.90
14489;DHT22;7330;50.804;4.550;2023-12-20T03:10:59;7.50;99.90
14489;DHT22;7330;50.804;4.550;2023-12-20T03:13:26;7.60;99.90
14489;DHT22;7330;50.804;4.550;2023-12-20T03:15:59;7.50;99.90
14489;DHT22;7330;50.804;4.550;2023-12-20T03:18:26;7.50;99.90
14489;DHT22;7330;50.804;4.550;2023-12-20T03:20:54;7.50;99.90
14489;DHT22;7330;50.804;4.550;2023-12-20T03:23:20;7.60;99.90
14489;DHT22;7330;50.804;4.550;2023-12-20T03:25:47;7.50;99.90
14489;DHT22;7330;50.804;4.550;2023-12-20T03:30:42;7.50;99.90
14489;DHT22;7330;50.804;4.550;2023-12-20T03:33:10;7.50;99.90
14489;DHT22;7330;50.804;4.550;2023-12-20T03:35:37;7.50;99.90
14489;DHT22;7330;50.804;4.550;2023-12-20T03:38:03;7.50;99.90
14489;DHT22;7330;50.804;4.550;2023-12-20T03:40:30;7.50;99.90
14489;DHT22;7330;50.804;4.550;2023-12-20T03:42:57;7.50;99.90
14489;DHT22;7330;50.804;4.550;2023-12-20T03:45:24;7.50;99.90
14489;DHT22;7330;50.804;4.550;2023-12-20T03:47:50;7.50;99.90
14489;DHT22;7330;50.804;4.550;2023-12-20T03:52:48;7.50;99.90
14489;DHT22;7330;50.804;4.550;2023-12-20T03:55:15;7.50;99.90
14489;DHT22;7330;50.804;4.550;2023-12-20T04:07:30;7.60;99.90
14489;DHT22;7330;50.804;4.550;2023-12-20T04:09:58;7.60;99.90
14489;DHT22;7330;50.804;4.550;2023-12-20T04:17:19;7.60;99.90
14489;DHT22;7330;50.804;4.550;2023-12-20T04:19:48;7.60;99.90
14489;DHT22;7330;50.804;4.550;2023-12-20T04:22:15;7.60;99.90
14489;DHT22;7330;50.804;4.550;2023-12-20T04:24:41;7.60;99.90
14489;DHT22;7330;50.804;4.550;2023-12-20T04:27:09;7.60;99.90
14489;DHT22;7330;50.804;4.550;2023-12-20T04:29:36;7.70;99.90
14489;DHT22;7330;50.804;4.550;2023-12-20T04:32:04;7.60;99.90
14489;DHT22;7330;50.804;4.550;2023-12-20T04:34:30;7.70;99.90
14489;DHT22;7330;50.804;4.550;2023-12-20T04:44:20;7.70;99.90
14489;DHT22;7330;50.804;4.550;2023-12-20T04:46:46;7.70;99.90
14489;DHT22;7330;50.804;4.550;2023-12-20T04:49:13;7.70;99.90
14489;DHT22;7330;50.804;4.550;2023-12-20T04:51:40;7.70;99.90
14489;DHT22;7330;50.804;4.550;2023-12-20T04:56:35;7.70;99.90
14489;DHT22;7330;50.804;4.550;2023-12-20T04:59:02;7.60;99.90
14489;DHT22;7330;50.804;4.550;2023-12-20T05:01:30;7.60;99.90
14489;DHT22;7330;50.804;4.550;2023-12-20T05:03:57;7.60;99.90
14489;DHT22;7330;50.804;4.550;2023-12-20T05:11:18;7.60;99.90
14489;DHT22;7330;50.804;4.550;2023-12-20T05:13:44;7.60;99.90
14489;DHT22;7330;50.804;4.550;2023-12-20T05:16:11;7.50;99.90
14489;DHT22;7330;50.804;4.550;2023-12-20T05:18:40;7.60;99.90
14489;DHT22;7330;50.804;4.550;2023-12-20T05:21:07;7.60;99.90
14489;DHT22;7330;50.804;4.550;2023-12-20T05:26:01;7.60;99.90
14489;DHT22;7330;50.804;4.550;2023-12-20T05:30:55;7.60;99.90
14489;DHT22;7330;50.804;4.550;2023-12-20T05:33:21;7.60;99.90
14489;DHT22;7330;50.804;4.550;2023-12-20T05:35:50;7.60;99.90
14489;DHT22;7330;50.804;4.550;2023-12-20T05:38:16;7.50;99.90
14489;DHT22;7330;50.804;4.550;2023-12-20T05:40:43;7.50;99.90
14489;DHT22;7330;50.804;4.550;2023-12-20T05:48:05;7.50;99.90
14489;DHT22;7330;50.804;4.550;2023-12-20T05:50:32;7.50;99.90
14489;DHT22;7330;50.804;4.550;2023-12-20T05:53:01;7.40;99.90
14489;DHT22;7330;50.804;4.550;2023-12-20T05:55:28;7.40;99.90
14489;DHT22;7330;50.804;4.550;2023-12-20T05:57:55;7.40;99.90
14489;DHT22;7330;50.804;4.550;2023-12-20T06:00:21;7.40;99.90
14489;DHT22;7330;50.804;4.550;2023-12-20T06:02:48;7.40;99.90
14489;DHT22;7330;50.804;4.550;2023-12-20T06:05:15;7.40;99.90
14489;DHT22;7330;50.804;4.550;2023-12-20T06:10:11;7.40;99.90
14489;DHT22;7330;50.804;4.550;2023-12-20T06:15:06;7.40;99.90
14489;DHT22;7330;50.804;4.550;2023-12-20T06:17:33;7.40;99.90
14489;DHT22;7330;50.804;4.550;2023-12-20T06:20:00;7.40;99.90
14489;DHT22;7330;50.804;4.550;2023-12-20T06:22:28;7.30;99.90
14489;DHT22;7330;50.804;4.550;2023-12-20T06:24:54;7.40;99.90
14489;DHT22;7330;50.804;4.550;2023-12-20T06:27:22;7.30;99.90
14489;DHT22;7330;50.804;4.550;2023-12-20T06:32:16;7.30;99.90
14489;DHT22;7330;50.804;4.550;2023-12-20T06:34:43;7.30;99.90
14489;DHT22;7330;50.804;4.550;2023-12-20T06:37:10;7.30;99.90
14489;DHT22;7330;50.804;4.550;2023-12-20T06:39:36;7.30;99.90
14489;DHT22;7330;50.804;4.550;2023-12-20T06:42:03;7.30;99.90
14489;DHT22;7330;50.804;4.550;2023-12-20T06:44:31;7.30;99.90
14489;DHT22;7330;50.804;4.550;2023-12-20T06:46:58;7.30;99.90
14489;DHT22;7330;50.804;4.550;2023-12-20T06:49:25;7.30;99.90
14489;DHT22;7330;50.804;4.550;2023-12-20T06:54:19;7.30;99.90
14489;DHT22;7330;50.804;4.550;2023-12-20T06:56:46;7.30;99.90
14489;DHT22;7330;50.804;4.550;2023-12-20T06:59:13;7.30;99.90
14489;DHT22;7330;50.804;4.550;2023-12-20T07:01:41;7.30;99.90
14489;DHT22;7330;50.804;4.550;2023-12-20T07:04:08;7.30;99.90
14489;DHT22;7330;50.804;4.550;2023-12-20T07:06:35;7.30;99.90
14489;DHT22;7330;50.804;4.550;2023-12-20T07:11:29;7.30;99.90
14489;DHT22;7330;50.804;4.550;2023-12-20T07:16:22;7.20;99.90
14489;DHT22;7330;50.804;4.550;2023-12-20T07:18:51;7.30;99.90
14489;DHT22;7330;50.804;4.550;2023-12-20T07:21:18;7.20;99.90
14489;DHT22;7330;50.804;4.550;2023-12-20T07:23:45;7.20;99.90
14489;DHT22;7330;50.804;4.550;2023-12-20T07:26:12;7.20;99.90
14489;DHT22;7330;50.804;4.550;2023-12-20T07:28:39;7.10;99.90
14489;DHT22;7330;50.804;4.550;2023-12-20T07:31:06;7.10;99.90
14489;DHT22;7330;50.804;4.550;2023-12-20T07:33:33;7.10;99.90
14489;DHT22;7330;50.804;4.550;2023-12-20T07:38:28;7.10;99.90
14489;DHT22;7330;50.804;4.550;2023-12-20T07:43:22;7.00;99.90
14489;DHT22;7330;50.804;4.550;2023-12-20T07:45:49;7.00;99.90
14489;DHT22;7330;50.804;4.550;2023-12-20T07:48:16;7.00;99.90
14489;DHT22;7330;50.804;4.550;2023-12-20T07:53:10;7.00;99.90
14489;DHT22;7330;50.804;4.550;2023-12-20T07:55:38;7.00;99.90
14489;DHT22;7330;50.804;4.550;2023-12-20T08:02:59;6.90;99.90
14489;DHT22;7330;50.804;4.550;2023-12-20T08:07:55;6.90;99.90
14489;DHT22;7330;50.804;4.550;2023-12-20T08:10:22;6.90;99.90
14489;DHT22;7330;50.804;4.550;2023-12-20T08:17:45;6.80;99.90
14489;DHT22;7330;50.804;4.550;2023-12-20T08:22:38;6.80;99.90
14489;DHT22;7330;50.804;4.550;2023-12-20T08:27:32;6.80;99.90
14489;DHT22;7330;50.804;4.550;2023-12-20T08:29:59;6.90;99.90
14489;DHT22;7330;50.804;4.550;2023-12-20T08:32:26;6.80;99.90
14489;DHT22;7330;50.804;4.550;2023-12-20T08:34:54;6.80;99.90
14489;DHT22;7330;50.804;4.550;2023-12-20T08:37:21;6.90;99.90
14489;DHT22;7330;50.804;4.550;2023-12-20T08:39:48;6.90;99.90
14489;DHT22;7330;50.804;4.550;2023-12-20T08:42:14;7.00;99.90
14489;DHT22;7330;50.804;4.550;2023-12-20T08:44:41;6.90;99.90
14489;DHT22;7330;50.804;4.550;2023-12-20T08:49:38;6.90;99.90
14489;DHT22;7330;50.804;4.550;2023-12-20T08:52:06;7.00;99.90
14489;DHT22;7330;50.804;4.550;2023-12-20T08:54:33;7.00;99.90
14489;DHT22;7330;50.804;4.550;2023-12-20T08:57:00;7.00;99.90
14489;DHT22;7330;50.804;4.550;2023-12-20T09:01:54;7.10;99.90
14489;DHT22;7330;50.804;4.550;2023-12-20T09:04:21;7.10;99.90
14489;DHT22;7330;50.804;4.550;2023-12-20T09:06:48;7.10;99.90
14489;DHT22;7330;50.804;4.550;2023-12-20T09:11:43;7.20;99.90
14489;DHT22;7330;50.804;4.550;2023-12-20T09:16:39;7.20;99.90
14489;DHT22;7330;50.804;4.550;2023-12-20T09:19:05;7.20;99.90
14489;DHT22;7330;50.804;4.550;2023-12-20T09:21:32;7.30;99.90
14489;DHT22;7330;50.804;4.550;2023-12-20T09:23:59;7.30;99.90
14489;DHT22;7330;50.804;4.550;2023-12-20T09:28:54;7.40;99.90
14489;DHT22;7330;50.804;4.550;2023-12-20T09:33:48;7.50;99.90
14489;DHT22;7330;50.804;4.550;2023-12-20T09:36:15;7.50;99.90
14489;DHT22;7330;50.804;4.550;2023-12-20T09:43:37;7.60;99.90
14489;DHT22;7330;50.804;4.550;2023-12-20T09:46:06;7.60;99.90
14489;DHT22;7330;50.804;4.550;2023-12-20T09:48:33;7.70;99.90
14489;DHT22;7330;50.804;4.550;2023-12-20T09:51:00;7.70;99.90
14489;DHT22;7330;50.804;4.550;2023-12-20T09:55:55;7.80;99.90
14489;DHT22;7330;50.804;4.550;2023-12-20T09:58:23;7.90;99.90
14489;DHT22;7330;50.804;4.550;2023-12-20T10:00:50;7.90;99.90
14489;DHT22;7330;50.804;4.550;2023-12-20T10:05:45;8.00;99.90
14489;DHT22;7330;50.804;4.550;2023-12-20T10:08:14;8.10;99.90
14489;DHT22;7330;50.804;4.550;2023-12-20T10:20:30;8.30;99.90
14489;DHT22;7330;50.804;4.550;2023-12-20T10:22:58;8.30;99.90
14489;DHT22;7330;50.804;4.550;2023-12-20T10:30:34;8.40;99.90
14489;DHT22;7330;50.804;4.550;2023-12-20T10:33:01;8.60;99.90
14489;DHT22;7330;50.804;4.550;2023-12-20T10:35:28;8.60;99.90
14489;DHT22;7330;50.804;4.550;2023-12-20T10:37:55;8.60;99.90
14489;DHT22;7330;50.804;4.550;2023-12-20T10:40:24;8.50;99.90
14489;DHT22;7330;50.804;4.550;2023-12-20T10:45:18;8.60;99.90
14489;DHT22;7330;50.804;4.550;2023-12-20T10:47:46;8.60;99.90
14489;DHT22;7330;50.804;4.550;2023-12-20T10:50:13;8.70;99.90
14489;DHT22;7330;50.804;4.550;2023-12-20T10:52:41;8.70;99.90
14489;DHT22;7330;50.804;4.550;2023-12-20T10:55:09;8.80;99.90
14489;DHT22;7330;50.804;4.550;2023-12-20T11:00:04;8.80;99.90
14489;DHT22;7330;50.804;4.550;2023-12-20T11:02:32;8.80;99.90
14489;DHT22;7330;50.804;4.550;2023-12-20T11:07:35;8.80;99.90
14489;DHT22;7330;50.804;4.550;2023-12-20T11:10:03;8.80;99.90
14489;DHT22;7330;50.804;4.550;2023-12-20T11:12:37;8.90;99.90
14489;DHT22;7330;50.804;4.550;2023-12-20T11:15:07;8.80;99.90
14489;DHT22;7330;50.804;4.550;2023-12-20T11:17:34;8.80;99.90
14489;DHT22;7330;50.804;4.550;2023-12-20T11:22:30;8.90;99.90
14489;DHT22;7330;50.804;4.550;2023-12-20T11:24:58;8.90;99.90
14489;DHT22;7330;50.804;4.550;2023-12-20T11:27:27;8.90;99.90
14489;DHT22;7330;50.804;4.550;2023-12-20T11:29:55;9.00;99.90
14489;DHT22;7330;50.804;4.550;2023-12-20T11:34:51;9.00;99.90
14489;DHT22;7330;50.804;4.550;2023-12-20T11:37:17;9.00;99.90
14489;DHT22;7330;50.804;4.550;2023-12-20T11:39:46;9.00;99.90
14489;DHT22;7330;50.804;4.550;2023-12-20T11:42:19;9.00;99.90
14489;DHT22;7330;50.804;4.550;2023-12-20T11:44:47;9.10;99.90
14489;DHT22;7330;50.804;4.550;2023-12-20T11:47:14;9.10;99.90
14489;DHT22;7330;50.804;4.550;2023-12-20T11:52:11;9.00;99.90
14489;DHT22;7330;50.804;4.550;2023-12-20T11:59:32;9.10;99.90
14489;DHT22;7330;50.804;4.550;2023-12-20T12:01:59;9.10;99.90
14489;DHT22;7330;50.804;4.550;2023-12-20T12:04:26;9.10;99.90
14489;DHT22;7330;50.804;4.550;2023-12-20T12:06:53;9.10;99.90
14489;DHT22;7330;50.804;4.550;2023-12-20T12:09:22;9.10;99.90
14489;DHT22;7330;50.804;4.550;2023-12-20T12:11:48;9.20;99.90
14489;DHT22;7330;50.804;4.550;2023-12-20T12:14:15;9.20;99.90
14489;DHT22;7330;50.804;4.550;2023-12-20T12:19:19;9.20;99.90
14489;DHT22;7330;50.804;4.550;2023-12-20T12:26:42;9.30;99.90
14489;DHT22;7330;50.804;4.550;2023-12-20T12:29:09;9.30;99.90
14489;DHT22;7330;50.804;4.550;2023-12-20T12:31:36;9.30;99.90
14489;DHT22;7330;50.804;4.550;2023-12-20T12:34:02;9.30;99.90
14489;DHT22;7330;50.804;4.550;2023-12-20T12:36:29;9.30;99.90
14489;DHT22;7330;50.804;4.550;2023-12-20T12:41:23;9.30;99.90
14489;DHT22;7330;50.804;4.550;2023-12-20T12:46:18;9.30;99.90
14489;DHT22;7330;50.804;4.550;2023-12-20T12:48:45;9.30;99.90
14489;DHT22;7330;50.804;4.550;2023-12-20T12:53:40;9.40;99.90
14489;DHT22;7330;50.804;4.550;2023-12-20T12:56:07;9.40;99.90
14489;DHT22;7330;50.804;4.550;2023-12-20T12:58:34;9.40;99.90
14489;DHT22;7330;50.804;4.550;2023-12-20T13:01:01;9.40;99.90
14489;DHT22;7330;50.804;4.550;2023-12-20T13:03:30;9.40;99.90
14489;DHT22;7330;50.804;4.550;2023-12-20T13:08:24;9.40;99.90
14489;DHT22;7330;50.804;4.550;2023-12-20T13:10:51;9.50;99.90
14489;DHT22;7330;50.804;4.550;2023-12-20T13:13:17;9.50;99.90
14489;DHT22;7330;50.804;4.550;2023-12-20T13:18:16;9.50;99.90
14489;DHT22;7330;50.804;4.550;2023-12-20T13:23:11;9.50;99.90
14489;DHT22;7330;50.804;4.550;2023-12-20T13:25:39;9.40;99.90
14489;DHT22;7330;50.804;4.550;2023-12-20T13:30:33;9.50;99.90
14489;DHT22;7330;50.804;4.550;2023-12-20T13:33:01;9.50;99.90
14489;DHT22;7330;50.804;4.550;2023-12-20T13:35:27;9.50;99.90
14489;DHT22;7330;50.804;4.550;2023-12-20T13:40:23;9.60;99.90
14489;DHT22;7330;50.804;4.550;2023-12-20T13:45:17;9.60;99.90
14489;DHT22;7330;50.804;4.550;2023-12-20T13:47:43;9.60;99.90
14489;DHT22;7330;50.804;4.550;2023-12-20T13:52:37;9.60;99.90
14489;DHT22;7330;50.804;4.550;2023-12-20T13:55:04;9.60;99.90
14489;DHT22;7330;50.804;4.550;2023-12-20T13:57:34;9.60;99.90
14489;DHT22;7330;50.804;4.550;2023-12-20T14:00:03;9.60;99.90
14489;DHT22;7330;50.804;4.550;2023-12-20T14:02:30;9.60;99.90
14489;DHT22;7330;50.804;4.550;2023-12-20T14:04:57;9.60;99.90
14489;DHT22;7330;50.804;4.550;2023-12-20T14:07:24;9.70;99.90
14489;DHT22;7330;50.804;4.550;2023-12-20T14:09:51;9.60;99.90
14489;DHT22;7330;50.804;4.550;2023-12-20T14:14:47;9.60;99.90
14489;DHT22;7330;50.804;4.550;2023-12-20T14:22:07;9.70;99.90
14489;DHT22;7330;50.804;4.550;2023-12-20T14:24:34;9.70;99.90
14489;DHT22;7330;50.804;4.550;2023-12-20T14:29:28;9.70;99.90
14489;DHT22;7330;50.804;4.550;2023-12-20T14:39:19;9.80;99.90
14489;DHT22;7330;50.804;4.550;2023-12-20T14:44:13;9.70;99.90
14489;DHT22;7330;50.804;4.550;2023-12-20T14:46:40;9.70;99.90
14489;DHT22;7330;50.804;4.550;2023-12-20T14:54:02;9.80;99.90
14489;DHT22;7330;50.804;4.550;2023-12-20T14:56:30;9.90;99.90
14489;DHT22;7330;50.804;4.550;2023-12-20T14:58:57;9.90;99.90
14489;DHT22;7330;50.804;4.550;2023-12-20T15:03:51;9.90;99.90
14489;DHT22;7330;50.804;4.550;2023-12-20T15:06:18;9.90;99.90
14489;DHT22;7330;50.804;4.550;2023-12-20T15:08:45;9.90;99.90
14489;DHT22;7330;50.804;4.550;2023-12-20T15:11:12;9.90;99.90
14489;DHT22;7330;50.804;4.550;2023-12-20T15:13:40;9.90;99.90
14489;DHT22;7330;50.804;4.550;2023-12-20T15:18:34;10.00;99.90
14489;DHT22;7330;50.804;4.550;2023-12-20T15:25:57;9.90;99.90
14489;DHT22;7330;50.804;4.550;2023-12-20T15:28:24;9.90;99.90
14489;DHT22;7330;50.804;4.550;2023-12-20T15:30:52;9.90;99.90
14489;DHT22;7330;50.804;4.550;2023-12-20T15:33:19;9.90;99.90
14489;DHT22;7330;50.804;4.550;2023-12-20T15:35:46;9.90;99.90
14489;DHT22;7330;50.804;4.550;2023-12-20T15:38:12;9.90;99.90
14489;DHT22;7330;50.804;4.550;2023-12-20T15:40:39;9.90;99.90
14489;DHT22;7330;50.804;4.550;2023-12-20T15:43:06;9.90;99.90
14489;DHT22;7330;50.804;4.550;2023-12-20T15:48:01;10.00;99.90
14489;DHT22;7330;50.804;4.550;2023-12-20T15:50:29;10.00;99.90
14489;DHT22;7330;50.804;4.550;2023-12-20T15:52:55;10.00;99.90
14489;DHT22;7330;50.804;4.550;2023-12-20T15:57:49;10.00;99.90
14489;DHT22;7330;50.804;4.550;2023-12-20T16:00:16;10.10;99.90
14489;DHT22;7330;50.804;4.550;2023-12-20T16:02:43;10.10;99.90
14489;DHT22;7330;50.804;4.550;2023-12-20T16:10:05;10.10;99.90
14489;DHT22;7330;50.804;4.550;2023-12-20T16:12:32;10.00;99.90
14489;DHT22;7330;50.804;4.550;2023-12-20T16:14:59;10.10;99.90
14489;DHT22;7330;50.804;4.550;2023-12-20T16:17:26;10.10;99.90
14489;DHT22;7330;50.804;4.550;2023-12-20T16:19:53;10.10;99.90
14489;DHT22;7330;50.804;4.550;2023-12-20T16:22:20;10.10;99.90
14489;DHT22;7330;50.804;4.550;2023-12-20T16:24:46;10.10;99.90
14489;DHT22;7330;50.804;4.550;2023-12-20T16:27:14;10.00;99.90
14489;DHT22;7330;50.804;4.550;2023-12-20T16:32:09;10.10;99.90
14489;DHT22;7330;50.804;4.550;2023-12-20T16:34:36;10.10;99.90
14489;DHT22;7330;50.804;4.550;2023-12-20T16:37:03;10.10;99.90
14489;DHT22;7330;50.804;4.550;2023-12-20T16:39:30;10.10;99.90
14489;DHT22;7330;50.804;4.550;2023-12-20T16:41:56;10.10;99.90
14489;DHT22;7330;50.804;4.550;2023-12-20T16:44:24;10.10;99.90
14489;DHT22;7330;50.804;4.550;2023-12-20T16:46:51;10.10;99.90
14489;DHT22;7330;50.804;4.550;2023-12-20T16:49:18;10.10;99.90
14489;DHT22;7330;50.804;4.550;2023-12-20T16:56:45;10.10;99.90
14489;DHT22;7330;50.804;4.550;2023-12-20T17:04:09;10.20;99.90
14489;DHT22;7330;50.804;4.550;2023-12-20T17:09:03;10.20;99.90
14489;DHT22;7330;50.804;4.550;2023-12-20T17:13:57;10.20;99.90
14489;DHT22;7330;50.804;4.550;2023-12-20T17:16:25;10.20;99.90
14489;DHT22;7330;50.804;4.550;2023-12-20T17:18:52;10.10;99.90
14489;DHT22;7330;50.804;4.550;2023-12-20T17:21:20;10.10;99.90
14489;DHT22;7330;50.804;4.550;2023-12-20T17:23:47;10.20;99.90
14489;DHT22;7330;50.804;4.550;2023-12-20T17:26:14;10.20;99.90
14489;DHT22;7330;50.804;4.550;2023-12-20T17:28:41;10.20;99.90
14489;DHT22;7330;50.804;4.550;2023-12-20T17:31:07;10.20;99.90
14489;DHT22;7330;50.804;4.550;2023-12-20T17:33:34;10.20;99.90
14489;DHT22;7330;50.804;4.550;2023-12-20T17:38:30;10.20;99.90
14489;DHT22;7330;50.804;4.550;2023-12-20T17:43:25;10.10;99.90
14489;DHT22;7330;50.804;4.550;2023-12-20T17:48:18;10.20;99.90
14489;DHT22;7330;50.804;4.550;2023-12-20T17:50:47;10.20;99.90
14489;DHT22;7330;50.804;4.550;2023-12-20T17:55:42;10.20;99.90
14489;DHT22;7330;50.804;4.550;2023-12-20T17:58:09;10.20;99.90
14489;DHT22;7330;50.804;4.550;2023-12-20T18:00:36;10.20;99.90
14489;DHT22;7330;50.804;4.550;2023-12-20T18:05:30;10.20;99.90
14489;DHT22;7330;50.804;4.550;2023-12-20T18:07:57;10.20;99.90
14489;DHT22;7330;50.804;4.550;2023-12-20T18:10:24;10.30;99.90
14489;DHT22;7330;50.804;4.550;2023-12-20T18:12:52;10.30;99.90
14489;DHT22;7330;50.804;4.550;2023-12-20T18:17:45;10.30;99.90
14489;DHT22;7330;50.804;4.550;2023-12-20T18:20:12;10.20;99.90
14489;DHT22;7330;50.804;4.550;2023-12-20T18:22:39;10.20;99.90
14489;DHT22;7330;50.804;4.550;2023-12-20T18:30:01;10.20;99.90
14489;DHT22;7330;50.804;4.550;2023-12-20T18:34:58;10.20;99.90
14489;DHT22;7330;50.804;4.550;2023-12-20T18:37:25;10.20;99.90
14489;DHT22;7330;50.804;4.550;2023-12-20T18:39:51;10.20;99.90
14489;DHT22;7330;50.804;4.550;2023-12-20T18:42:18;10.30;99.90
14489;DHT22;7330;50.804;4.550;2023-12-20T18:44:46;10.30;99.90
14489;DHT22;7330;50.804;4.550;2023-12-20T18:52:12;10.10;99.90
14489;DHT22;7330;50.804;4.550;2023-12-20T18:54:38;10.20;99.90
14489;DHT22;7330;50.804;4.550;2023-12-20T18:57:05;10.10;99.90
14489;DHT22;7330;50.804;4.550;2023-12-20T18:59:34;10.10;99.90
14489;DHT22;7330;50.804;4.550;2023-12-20T19:06:55;10.20;99.90
14489;DHT22;7330;50.804;4.550;2023-12-20T19:09:24;10.20;99.90
14489;DHT22;7330;50.804;4.550;2023-12-20T19:11:51;10.20;99.90
14489;DHT22;7330;50.804;4.550;2023-12-20T19:14:18;10.20;99.90
14489;DHT22;7330;50.804;4.550;2023-12-20T19:16:47;10.20;99.90
14489;DHT22;7330;50.804;4.550;2023-12-20T19:19:13;10.20;99.90
14489;DHT22;7330;50.804;4.550;2023-12-20T19:21:40;10.20;99.90
14489;DHT22;7330;50.804;4.550;2023-12-20T19:24:08;10.20;99.90
14489;DHT22;7330;50.804;4.550;2023-12-20T19:26:36;10.30;99.90
14489;DHT22;7330;50.804;4.550;2023-12-20T19:29:03;10.20;99.90
14489;DHT22;7330;50.804;4.550;2023-12-20T19:31:36;10.20;99.90
14489;DHT22;7330;50.804;4.550;2023-12-20T19:34:02;10.30;99.90
14489;DHT22;7330;50.804;4.550;2023-12-20T19:38:56;10.30;99.90
14489;DHT22;7330;50.804;4.550;2023-12-20T19:41:23;10.30;99.90
14489;DHT22;7330;50.804;4.550;2023-12-20T19:46:19;10.30;99.90
14489;DHT22;7330;50.804;4.550;2023-12-20T19:51:13;10.30;99.90
14489;DHT22;7330;50.804;4.550;2023-12-20T19:53:41;10.40;99.90
14489;DHT22;7330;50.804;4.550;2023-12-20T19:56:08;10.40;99.90
14489;DHT22;7330;50.804;4.550;2023-12-20T20:03:30;10.40;99.90
14489;DHT22;7330;50.804;4.550;2023-12-20T20:05:57;10.40;99.90
14489;DHT22;7330;50.804;4.550;2023-12-20T20:10:51;10.50;99.90
14489;DHT22;7330;50.804;4.550;2023-12-20T20:13:17;10.40;99.90
14489;DHT22;7330;50.804;4.550;2023-12-20T20:15:44;10.50;99.90
14489;DHT22;7330;50.804;4.550;2023-12-20T20:25:51;10.50;99.90
14489;DHT22;7330;50.804;4.550;2023-12-20T20:28:18;10.50;99.90
14489;DHT22;7330;50.804;4.550;2023-12-20T20:30:45;10.50;99.90
14489;DHT22;7330;50.804;4.550;2023-12-20T20:35:38;10.60;99.90
14489;DHT22;7330;50.804;4.550;2023-12-20T20:38:05;10.50;99.90
14489;DHT22;7330;50.804;4.550;2023-12-20T20:43:00;10.50;99.90
14489;DHT22;7330;50.804;4.550;2023-12-20T20:45:28;10.50;99.90
14489;DHT22;7330;50.804;4.550;2023-12-20T20:47:55;10.50;99.90
14489;DHT22;7330;50.804;4.550;2023-12-20T20:50:21;10.60;99.90
14489;DHT22;7330;50.804;4.550;2023-12-20T20:55:16;10.70;99.90
14489;DHT22;7330;50.804;4.550;2023-12-20T20:57:43;10.60;99.90
14489;DHT22;7330;50.804;4.550;2023-12-20T21:00:14;10.60;99.90
14489;DHT22;7330;50.804;4.550;2023-12-20T21:02:41;10.70;99.90
14489;DHT22;7330;50.804;4.550;2023-12-20T21:17:25;10.80;99.90
14489;DHT22;7330;50.804;4.550;2023-12-20T21:19:51;10.80;99.90
14489;DHT22;7330;50.804;4.550;2023-12-20T21:22:18;10.80;99.90
14489;DHT22;7330;50.804;4.550;2023-12-20T21:24:45;10.80;99.90
14489;DHT22;7330;50.804;4.550;2023-12-20T21:34:34;10.80;99.90
14489;DHT22;7330;50.804;4.550;2023-12-20T21:39:28;10.80;99.90
14489;DHT22;7330;50.804;4.550;2023-12-20T21:41:55;10.80;99.90
14489;DHT22;7330;50.804;4.550;2023-12-20T21:44:21;10.90;99.90
14489;DHT22;7330;50.804;4.550;2023-12-20T21:46:48;10.90;99.90
14489;DHT22;7330;50.804;4.550;2023-12-20T21:51:43;10.90;99.90
14489;DHT22;7330;50.804;4.550;2023-12-20T21:56:40;10.90;99.90
14489;DHT22;7330;50.804;4.550;2023-12-20T21:59:07;10.80;99.90
14489;DHT22;7330;50.804;4.550;2023-12-20T22:01:34;10.80;99.90